createdAt,value
2022-10-06T00:01:16.381Z,12.68
2022-10-06T00:03:48.331Z,13.48
2022-10-06T00:06:17.793Z,12.70
2022-10-06T00:08:46.317Z,14.10
2022-10-06T00:11:15.298Z,12.77
2022-10-06T00:13:43.537Z,11.43
2022-10-06T00:16:17.646Z,10.93
2022-10-06T00:18:45.957Z,12.23
2022-10-06T00:21:15.540Z,11.00
2022-10-06T00:23:43.176Z,11.63
2022-10-06T00:26:17.298Z,10.93
2022-10-06T00:28:50.261Z,12.35
2022-10-06T00:31:19.878Z,12.45
2022-10-06T00:33:49.104Z,11.43
2022-10-06T00:36:16.526Z,11.70
2022-10-06T00:38:45.583Z,10.90
2022-10-06T00:41:14.716Z,11.50
2022-10-06T00:43:52.366Z,10.32
2022-10-06T00:46:26.324Z,10.73
2022-10-06T00:49:06.556Z,10.15
2022-10-06T00:51:36.673Z,9.10
2022-10-06T00:54:04.476Z,9.55
2022-10-06T00:56:32.268Z,8.80
2022-10-06T00:59:00.300Z,8.85
2022-10-06T01:01:30.996Z,9.23
2022-10-06T01:04:06.354Z,9.15
2022-10-06T01:06:50.832Z,9.20
2022-10-06T01:09:19.902Z,9.02
2022-10-06T01:11:54.626Z,9.35
2022-10-06T01:14:23.264Z,7.78
2022-10-06T01:16:59.939Z,8.60
2022-10-06T01:19:40.037Z,8.60
2022-10-06T01:22:08.788Z,8.23
2022-10-06T01:24:39.752Z,8.98
2022-10-06T01:27:09.807Z,9.00
2022-10-06T01:29:38.149Z,8.57
2022-10-06T01:32:05.777Z,8.80
2022-10-06T01:34:34.426Z,8.43
2022-10-06T01:37:03.340Z,8.57
2022-10-06T01:39:30.931Z,8.65
2022-10-06T01:42:31.890Z,8.98
2022-10-06T01:45:00.060Z,8.13
2022-10-06T01:47:28.093Z,7.80
2022-10-06T01:49:56.694Z,8.02
2022-10-06T01:52:24.986Z,8.07
2022-10-06T01:54:56.765Z,7.03
2022-10-06T01:57:24.451Z,8.18
2022-10-06T01:59:54.923Z,6.72
2022-10-06T02:02:24.525Z,7.88
2022-10-06T02:04:52.670Z,8.18
2022-10-06T02:07:20.263Z,8.00
2022-10-06T02:09:47.877Z,7.60
2022-10-06T02:12:16.961Z,8.55
2022-10-06T02:14:44.549Z,9.07
2022-10-06T02:17:12.133Z,8.90
2022-10-06T02:19:39.483Z,8.15
2022-10-06T02:22:07.470Z,8.88
2022-10-06T02:24:35.607Z,9.82
2022-10-06T02:27:03.870Z,8.43
2022-10-06T02:29:31.734Z,9.38
2022-10-06T02:32:02.162Z,8.45
2022-10-06T02:34:30.636Z,9.43
2022-10-06T02:36:59.942Z,9.07
2022-10-06T02:39:29.197Z,8.00
2022-10-06T02:41:56.493Z,8.10
2022-10-06T02:44:25.211Z,7.57
2022-10-06T02:46:55.202Z,8.00
2022-10-06T02:49:22.616Z,7.40
2022-10-06T02:51:51.740Z,7.97
2022-10-06T02:54:19.205Z,7.38
2022-10-06T02:56:50.249Z,8.05
2022-10-06T02:59:19.096Z,8.55
2022-10-06T03:01:46.907Z,8.40
2022-10-06T03:04:21.233Z,8.35
2022-10-06T03:06:50.268Z,7.35
2022-10-06T03:09:22.475Z,7.35
2022-10-06T03:11:51.453Z,7.47
2022-10-06T03:14:40.118Z,7.55
2022-10-06T03:17:10.084Z,7.30
2022-10-06T03:19:42.796Z,6.00
2022-10-06T03:22:10.938Z,6.97
2022-10-06T03:24:44.213Z,6.90
2022-10-06T03:27:11.608Z,6.35
2022-10-06T03:29:39.125Z,6.05
2022-10-06T03:32:06.837Z,6.32
2022-10-06T03:34:35.951Z,6.18
2022-10-06T03:37:05.718Z,6.72
2022-10-06T03:39:34.366Z,5.97
2022-10-06T03:42:02.269Z,6.65
2022-10-06T03:44:32.391Z,6.40
2022-10-06T03:47:00.085Z,6.40
2022-10-06T03:49:27.572Z,7.28
2022-10-06T03:51:54.978Z,6.30
2022-10-06T03:54:27.196Z,5.93
2022-10-06T03:56:54.848Z,5.97
2022-10-06T03:59:22.373Z,6.22
2022-10-06T04:01:53.050Z,7.25
2022-10-06T04:04:28.645Z,6.80
2022-10-06T04:07:01.475Z,6.90
2022-10-06T04:09:28.885Z,5.90
2022-10-06T04:11:57.290Z,6.53
2022-10-06T04:14:25.539Z,6.50
2022-10-06T04:16:53.526Z,6.35
2022-10-06T04:19:36.822Z,6.05
2022-10-06T04:22:05.632Z,6.70
2022-10-06T04:24:34.489Z,6.45
2022-10-06T04:27:21.502Z,6.97
2022-10-06T04:29:57.201Z,7.03
2022-10-06T04:32:24.940Z,7.60
2022-10-06T04:34:52.870Z,7.75
2022-10-06T04:37:20.370Z,8.38
2022-10-06T04:39:48.003Z,8.32
2022-10-06T04:42:15.722Z,10.48
2022-10-06T04:44:45.352Z,8.27
2022-10-06T04:47:12.965Z,9.18
2022-10-06T04:49:40.236Z,10.00
2022-10-06T04:52:08.576Z,9.30
2022-10-06T04:54:38.497Z,9.77
2022-10-06T04:57:07.917Z,10.23
2022-10-06T04:59:54.828Z,11.45
2022-10-06T05:02:23.838Z,10.13
2022-10-06T05:04:57.337Z,10.40
2022-10-06T05:07:26.174Z,15.35
2022-10-06T05:09:55.923Z,9.45
2022-10-06T05:12:24.329Z,10.80
2022-10-06T05:14:53.021Z,10.77
2022-10-06T05:17:20.350Z,10.85
2022-10-06T05:19:48.892Z,10.77
2022-10-06T05:22:19.184Z,11.93
2022-10-06T05:24:51.168Z,10.95
2022-10-06T05:27:21.211Z,10.88
2022-10-06T05:29:48.945Z,11.40
2022-10-06T05:32:16.404Z,10.70
2022-10-06T05:34:43.769Z,11.70
2022-10-06T05:37:11.579Z,11.88
2022-10-06T05:39:39.835Z,11.60
2022-10-06T05:42:07.486Z,11.10
2022-10-06T05:44:35.558Z,12.43
2022-10-06T05:47:07.906Z,9.52
2022-10-06T05:49:36.200Z,16.20
2022-10-06T05:52:07.282Z,11.68
2022-10-06T05:54:36.927Z,10.77
2022-10-06T05:57:06.750Z,11.20
2022-10-06T05:59:35.251Z,10.48
2022-10-06T06:02:06.464Z,10.75
2022-10-06T06:04:42.866Z,9.52
2022-10-06T06:07:12.245Z,10.38
2022-10-06T06:09:42.301Z,9.80
2022-10-06T06:12:11.247Z,12.85
2022-10-06T06:15:20.787Z,11.20
2022-10-06T06:17:56.143Z,12.27
2022-10-06T06:20:24.155Z,10.85
2022-10-06T06:22:52.664Z,31.30
2022-10-06T06:25:22.472Z,11.50
2022-10-06T06:27:50.392Z,11.63
2022-10-06T06:30:17.877Z,58.80
2022-10-06T06:32:45.263Z,21.45
2022-10-06T06:35:12.867Z,72.75
2022-10-06T06:37:40.281Z,24.23
2022-10-06T06:40:11.271Z,26.60
2022-10-06T06:42:40.644Z,32.42
2022-10-06T06:45:26.206Z,15.63
2022-10-06T06:48:16.340Z,24.05
2022-10-06T06:50:45.923Z,8.98
2022-10-06T06:53:16.322Z,9.05
2022-10-06T06:55:51.076Z,9.25
2022-10-06T06:58:21.347Z,8.98
2022-10-06T07:00:55.148Z,9.45
2022-10-06T07:03:56.747Z,9.93
2022-10-06T07:06:35.255Z,10.27
2022-10-06T07:09:11.363Z,10.80
2022-10-06T07:12:11.808Z,15.00
2022-10-06T07:15:06.894Z,36.72
2022-10-06T07:17:58.067Z,14.90
2022-10-06T07:20:44.636Z,11.27
2022-10-06T07:23:35.779Z,13.30
2022-10-06T07:26:05.557Z,12.68
2022-10-06T07:28:33.239Z,12.07
2022-10-06T07:31:01.970Z,10.95
2022-10-06T07:33:32.854Z,11.25
2022-10-06T07:36:04.296Z,11.63
2022-10-06T07:38:34.798Z,12.80
2022-10-06T07:41:19.997Z,12.13
2022-10-06T07:43:57.751Z,14.30
2022-10-06T07:46:29.189Z,13.82
2022-10-06T07:49:10.518Z,15.13
2022-10-06T07:51:38.642Z,14.80
2022-10-06T07:54:18.686Z,14.65
2022-10-06T07:57:15.875Z,15.27
2022-10-06T07:59:51.084Z,14.00
2022-10-06T08:02:19.966Z,13.75
2022-10-06T08:04:47.741Z,14.48
2022-10-06T08:07:16.705Z,14.75
2022-10-06T08:09:47.434Z,13.27
2022-10-06T08:12:35.061Z,13.85
2022-10-06T08:15:08.868Z,12.18
2022-10-06T08:17:37.466Z,12.43
2022-10-06T08:20:11.825Z,12.65
2022-10-06T08:22:40.657Z,13.68
2022-10-06T08:25:10.357Z,13.60
2022-10-06T08:27:38.403Z,13.70
2022-10-06T08:30:07.634Z,12.52
2022-10-06T08:32:35.214Z,11.52
2022-10-06T08:35:02.609Z,10.70
2022-10-06T08:37:30.250Z,10.52
2022-10-06T08:39:57.612Z,8.50
2022-10-06T08:42:46.299Z,9.52
2022-10-06T08:45:39.501Z,9.00
2022-10-06T08:48:16.917Z,8.52
2022-10-06T08:51:09.680Z,8.80
2022-10-06T08:53:47.018Z,8.80
2022-10-06T08:56:21.803Z,7.90
2022-10-06T08:58:57.660Z,7.35
2022-10-06T09:01:32.927Z,8.52
2022-10-06T09:04:03.827Z,8.60
2022-10-06T09:07:11.356Z,7.85
2022-10-06T09:09:51.933Z,7.40
2022-10-06T09:12:29.540Z,8.85
2022-10-06T09:15:23.223Z,9.00
2022-10-06T09:17:56.812Z,10.27
2022-10-06T09:20:27.674Z,7.33
2022-10-06T09:22:57.825Z,9.27
2022-10-06T09:25:28.977Z,8.00
2022-10-06T09:28:02.121Z,8.13
2022-10-06T09:30:29.607Z,8.98
2022-10-06T09:33:05.101Z,8.60
2022-10-06T09:35:33.458Z,10.23
2022-10-06T09:38:09.072Z,9.57
2022-10-06T09:40:56.370Z,10.43
2022-10-06T09:43:26.981Z,8.10
2022-10-06T09:46:15.714Z,9.77
2022-10-06T09:48:44.371Z,10.73
2022-10-06T09:51:21.381Z,9.70
2022-10-06T09:54:29.330Z,9.82
2022-10-06T09:57:00.316Z,10.60
2022-10-06T09:59:52.361Z,9.43
2022-10-06T10:02:37.108Z,8.32
2022-10-06T10:05:07.921Z,8.50
2022-10-06T10:07:36.585Z,8.93
2022-10-06T10:10:23.623Z,8.20
2022-10-06T10:12:59.563Z,8.32
2022-10-06T10:15:40.666Z,9.40
2022-10-06T10:18:14.227Z,7.80
2022-10-06T10:20:54.613Z,9.37
2022-10-06T10:23:30.888Z,8.55
2022-10-06T10:26:27.313Z,9.07
2022-10-06T10:28:54.945Z,9.05
2022-10-06T10:31:44.327Z,9.60
2022-10-06T10:34:24.638Z,10.38
2022-10-06T10:36:57.978Z,9.80
2022-10-06T10:39:37.725Z,10.20
2022-10-06T10:42:15.494Z,9.88
2022-10-06T10:44:55.435Z,10.98
2022-10-06T10:47:28.344Z,10.18
2022-10-06T10:50:03.218Z,9.45
2022-10-06T10:52:38.104Z,8.50
2022-10-06T10:55:18.010Z,7.85
2022-10-06T10:57:46.582Z,6.82
2022-10-06T11:00:23.232Z,6.28
2022-10-06T11:02:55.046Z,7.68
2022-10-06T11:06:04.534Z,7.32
2022-10-06T11:09:01.657Z,8.98
2022-10-06T11:11:54.343Z,7.70
2022-10-06T11:14:37.265Z,7.47
2022-10-06T11:17:44.505Z,7.80
2022-10-06T11:20:44.341Z,6.70
2022-10-06T11:23:30.934Z,6.65
2022-10-06T11:26:17.800Z,6.78
2022-10-06T11:28:54.142Z,6.03
2022-10-06T11:31:33.262Z,6.55
2022-10-06T11:34:03.605Z,5.18
2022-10-06T11:37:00.805Z,5.47
2022-10-06T11:39:58.322Z,6.40
2022-10-06T11:42:50.914Z,5.90
2022-10-06T11:45:29.176Z,6.80
2022-10-06T11:48:05.379Z,4.88
2022-10-06T11:50:41.936Z,5.63
2022-10-06T11:53:39.684Z,5.50
2022-10-06T11:56:39.902Z,5.28
2022-10-06T11:59:26.802Z,5.28
2022-10-06T12:01:56.224Z,5.82
2022-10-06T12:04:26.534Z,6.38
2022-10-06T12:06:58.885Z,5.63
2022-10-06T12:09:32.964Z,5.60
2022-10-06T12:12:19.722Z,5.82
2022-10-06T12:18:01.447Z,4.78
2022-10-06T12:20:47.779Z,5.63
2022-10-06T12:23:22.210Z,4.90
2022-10-06T12:25:59.448Z,5.53
2022-10-06T12:28:45.261Z,6.00
2022-10-06T12:31:24.993Z,5.72
2022-10-06T12:33:52.700Z,5.22
2022-10-06T12:36:26.962Z,6.13
2022-10-06T12:39:05.397Z,5.13
2022-10-06T12:42:07.941Z,5.97
2022-10-06T12:44:41.219Z,5.70
2022-10-06T12:47:24.201Z,4.97
2022-10-06T12:50:20.942Z,4.28
2022-10-06T12:53:14.477Z,4.97
2022-10-06T12:56:04.032Z,5.32
2022-10-06T12:58:33.951Z,4.88
2022-10-06T13:01:04.418Z,5.00
2022-10-06T13:03:32.447Z,5.05
2022-10-06T13:06:03.442Z,5.63
2022-10-06T13:08:42.710Z,5.13
2022-10-06T13:11:42.404Z,4.85
2022-10-06T13:14:14.440Z,4.95
2022-10-06T13:16:49.729Z,5.40
2022-10-06T13:19:26.181Z,5.68
2022-10-06T13:21:55.240Z,5.40
2022-10-06T13:24:27.260Z,4.45
2022-10-06T13:26:55.102Z,5.25
2022-10-06T13:29:25.200Z,5.22
2022-10-06T13:31:55.258Z,5.43
2022-10-06T13:34:33.477Z,5.72
2022-10-06T13:37:02.063Z,5.15
2022-10-06T13:39:32.633Z,6.05
2022-10-06T13:42:10.358Z,4.57
2022-10-06T13:44:42.416Z,5.03
2022-10-06T13:47:21.744Z,5.70
2022-10-06T13:49:55.695Z,4.88
2022-10-06T13:52:33.619Z,5.15
2022-10-06T13:55:02.006Z,4.22
2022-10-06T13:57:50.299Z,3.95
2022-10-06T14:00:20.309Z,4.38
2022-10-06T14:02:55.292Z,3.72
2022-10-06T14:05:29.405Z,4.22
2022-10-06T14:10:33.614Z,4.15
2022-10-06T14:13:02.619Z,3.60
2022-10-06T14:15:56.291Z,3.40
2022-10-06T14:18:26.760Z,3.70
2022-10-06T14:20:56.693Z,3.90
2022-10-06T14:23:40.709Z,3.30
2022-10-06T14:26:09.235Z,5.10
2022-10-06T14:28:37.827Z,5.63
2022-10-06T14:31:06.245Z,4.10
2022-10-06T14:33:35.589Z,4.47
2022-10-06T14:36:03.370Z,4.38
2022-10-06T14:38:30.741Z,4.28
2022-10-06T14:41:02.206Z,5.30
2022-10-06T14:43:30.062Z,4.82
2022-10-06T14:45:57.796Z,4.53
2022-10-06T14:48:28.925Z,3.80
2022-10-06T14:50:56.472Z,3.70
2022-10-06T14:53:23.741Z,4.60
2022-10-06T14:55:51.032Z,4.57
2022-10-06T14:58:18.612Z,4.80
2022-10-06T15:00:46.850Z,3.70
2022-10-06T15:03:14.516Z,4.13
2022-10-06T15:06:02.021Z,5.03
2022-10-06T15:08:31.590Z,3.92
2022-10-06T15:11:00.074Z,4.05
2022-10-06T15:13:27.945Z,4.45
2022-10-06T15:15:59.376Z,4.55
2022-10-06T15:18:31.982Z,4.13
2022-10-06T15:21:22.651Z,4.28
2022-10-06T15:24:18.602Z,4.10
2022-10-06T15:30:11.906Z,5.85
2022-10-06T15:33:12.351Z,5.72
2022-10-06T15:35:39.938Z,5.97
2022-10-06T15:38:07.523Z,5.85
2022-10-06T15:40:36.714Z,6.03
2022-10-06T15:43:04.400Z,8.25
2022-10-06T15:45:32.712Z,8.43
2022-10-06T15:48:00.228Z,7.85
2022-10-06T15:50:28.679Z,8.98
2022-10-06T15:52:57.775Z,7.00
2022-10-06T15:55:26.320Z,8.82
2022-10-06T15:57:54.623Z,11.00
2022-10-06T16:00:25.858Z,10.82
2022-10-06T16:02:53.605Z,10.35
2022-10-06T16:05:42.181Z,10.88
2022-10-06T16:08:10.891Z,10.27
2022-10-06T16:10:39.485Z,11.18
2022-10-06T16:13:06.810Z,10.13
2022-10-06T16:15:34.207Z,11.48
2022-10-06T16:18:01.728Z,13.73
2022-10-06T16:20:29.383Z,12.43
2022-10-06T16:22:59.738Z,13.20
2022-10-06T16:25:30.402Z,13.48
2022-10-06T16:27:59.445Z,13.48
2022-10-06T16:30:28.274Z,15.48
2022-10-06T16:32:56.244Z,16.02
2022-10-06T16:35:24.662Z,36.13
2022-10-06T16:37:55.843Z,35.90
2022-10-06T16:40:28.017Z,46.20
2022-10-06T16:42:56.408Z,59.97
2022-10-06T16:45:23.812Z,53.58
2022-10-06T16:48:47.871Z,30.63
2022-10-06T16:51:36.948Z,24.70
2022-10-06T16:54:11.091Z,29.90
2022-10-06T16:59:16.424Z,42.78
2022-10-06T17:01:47.647Z,29.85
2022-10-06T17:04:19.132Z,25.30
2022-10-06T17:06:51.451Z,33.65
2022-10-06T17:09:21.773Z,30.45
2022-10-06T17:11:56.546Z,29.55
2022-10-06T17:14:25.497Z,28.88
2022-10-06T17:16:56.965Z,32.97
2022-10-06T17:19:28.386Z,35.63
2022-10-06T17:21:59.538Z,40.95
2022-10-06T17:24:29.695Z,37.47
2022-10-06T17:27:09.590Z,33.08
2022-10-06T17:29:40.540Z,29.98
2022-10-06T17:32:13.073Z,27.75
2022-10-06T17:34:42.719Z,23.40
2022-10-06T17:37:13.437Z,24.70
2022-10-06T17:39:47.090Z,26.27
2022-10-06T17:42:21.509Z,20.63
2022-10-06T17:47:23.432Z,20.45
2022-10-06T17:49:52.264Z,21.55
2022-10-06T17:52:24.118Z,19.63
2022-10-06T17:54:54.672Z,21.30
2022-10-06T17:57:24.198Z,26.13
2022-10-06T17:59:52.492Z,24.90
2022-10-06T18:02:22.562Z,25.80
2022-10-06T18:04:51.142Z,25.67
2022-10-06T18:07:19.458Z,28.65
2022-10-06T18:10:09.756Z,35.92
2022-10-06T18:12:39.273Z,29.38
2022-10-06T18:15:10.128Z,28.15
2022-10-06T18:17:38.379Z,22.05
2022-10-06T18:20:13.589Z,21.98
2022-10-06T18:22:45.439Z,24.50
2022-10-06T18:25:21.030Z,41.80
2022-10-06T18:27:55.781Z,46.50
2022-10-06T18:30:28.335Z,48.20
2022-10-06T18:35:57.604Z,37.37
2022-10-06T18:36:15.203Z,30.92
2022-10-06T18:38:47.057Z,25.33
2022-10-06T18:41:20.379Z,20.17
2022-10-06T18:43:50.951Z,22.15
2022-10-06T18:46:52.183Z,20.48
2022-10-06T18:49:34.569Z,31.00
2022-10-06T18:52:08.405Z,42.03
2022-10-06T18:54:49.489Z,24.92
2022-10-06T18:57:27.646Z,23.60
2022-10-06T19:00:04.957Z,20.48
2022-10-06T19:03:30.243Z,19.90
2022-10-06T19:06:01.357Z,21.13
2022-10-06T19:08:29.465Z,23.83
2022-10-06T19:11:21.544Z,26.85
2022-10-06T19:13:54.656Z,27.42
2022-10-06T19:16:30.766Z,35.22
2022-10-06T19:18:59.588Z,34.05
2022-10-06T19:21:31.845Z,33.97
2022-10-06T19:24:01.875Z,45.25
2022-10-06T19:26:32.843Z,36.53
2022-10-06T19:29:05.087Z,34.42
2022-10-06T19:31:41.985Z,41.72
2022-10-06T19:34:17.355Z,34.22
2022-10-06T19:36:53.152Z,34.47
2022-10-06T19:39:28.109Z,35.38
2022-10-06T19:42:26.409Z,31.33
2022-10-06T19:44:54.072Z,34.78
2022-10-06T19:47:26.421Z,33.13
2022-10-06T19:50:03.707Z,31.95
2022-10-06T19:52:35.652Z,29.73
2022-10-06T19:55:05.267Z,30.88
2022-10-06T19:57:38.113Z,32.38
2022-10-06T20:00:10.366Z,31.10
2022-10-06T20:05:13.740Z,24.15
2022-10-06T20:07:47.936Z,23.58
2022-10-06T20:10:16.013Z,22.02
2022-10-06T20:12:43.484Z,20.40
2022-10-06T20:15:13.011Z,23.80
2022-10-06T20:17:42.622Z,23.27
2022-10-06T20:20:11.371Z,19.98
2022-10-06T20:22:39.796Z,20.63
2022-10-06T20:25:07.657Z,22.40
2022-10-06T20:28:06.784Z,18.02
2022-10-06T20:30:37.853Z,17.35
2022-10-06T20:33:08.305Z,17.58
2022-10-06T20:35:35.627Z,18.25
2022-10-06T20:38:06.103Z,22.60
2022-10-06T20:40:42.994Z,27.33
2022-10-06T20:43:10.752Z,31.27
2022-10-06T20:45:38.025Z,26.15
2022-10-06T20:48:05.550Z,24.48
2022-10-06T20:50:32.955Z,22.77
2022-10-06T20:53:00.376Z,19.88
2022-10-06T20:55:28.764Z,25.63
2022-10-06T20:57:56.218Z,19.30
2022-10-06T21:00:23.592Z,17.38
2022-10-06T21:02:51.342Z,15.82
2022-10-06T21:05:19.052Z,14.75
2022-10-06T21:07:46.723Z,14.18
2022-10-06T21:10:14.429Z,13.32
2022-10-06T21:12:43.229Z,12.73
2022-10-06T21:15:10.729Z,12.63
2022-10-06T21:17:39.503Z,11.85
2022-10-06T21:20:09.587Z,12.20
2022-10-06T21:22:40.967Z,15.77
2022-10-06T21:25:15.489Z,16.65
2022-10-06T21:28:06.780Z,27.10
2022-10-06T21:30:36.933Z,33.65
2022-10-06T21:33:12.219Z,33.50
2022-10-06T21:35:45.379Z,31.85
2022-10-06T21:38:14.841Z,24.58
2022-10-06T21:40:42.779Z,17.70
2022-10-06T21:43:10.785Z,18.20
2022-10-06T21:45:40.552Z,21.40
2022-10-06T21:48:08.244Z,22.83
2022-10-06T21:50:35.553Z,26.88
2022-10-06T21:53:02.958Z,24.92
2022-10-06T21:55:30.583Z,25.63
2022-10-06T21:57:57.924Z,21.27
2022-10-06T22:00:25.510Z,21.73
2022-10-06T22:02:53.256Z,21.50
2022-10-06T22:05:20.711Z,18.33
2022-10-06T22:07:48.083Z,20.38
2022-10-06T22:10:15.750Z,20.65
2022-10-06T22:12:43.108Z,21.95
2022-10-06T22:15:11.256Z,21.95
2022-10-06T22:17:38.783Z,22.60
2022-10-06T22:20:09.133Z,24.08
2022-10-06T22:22:36.802Z,26.27
2022-10-06T22:25:06.005Z,24.45
2022-10-06T22:30:22.288Z,31.33
2022-10-06T22:32:55.952Z,29.60
2022-10-06T22:35:27.385Z,43.70
2022-10-06T22:37:57.797Z,38.90
2022-10-06T22:40:28.721Z,34.22
2022-10-06T22:42:57.460Z,22.33
2022-10-06T22:45:24.787Z,20.10
2022-10-06T22:47:52.288Z,20.30
2022-10-06T22:50:19.633Z,22.35
2022-10-06T22:52:46.967Z,21.35
2022-10-06T22:55:14.495Z,19.45
2022-10-06T22:57:42.024Z,18.00
2022-10-06T23:00:11.260Z,19.98
2022-10-06T23:02:39.121Z,19.02
2022-10-06T23:05:07.025Z,17.58
2022-10-06T23:07:34.324Z,18.55
2022-10-06T23:10:01.865Z,16.63
2022-10-06T23:12:29.206Z,18.92
2022-10-06T23:14:56.483Z,15.85
2022-10-06T23:17:23.981Z,17.88
2022-10-06T23:19:51.309Z,17.02
2022-10-06T23:22:18.815Z,19.63
2022-10-06T23:24:46.954Z,16.98
2022-10-06T23:27:14.475Z,19.75
2022-10-06T23:29:41.821Z,19.13
2022-10-06T23:32:09.400Z,18.30
2022-10-06T23:34:36.710Z,18.02
2022-10-06T23:37:04.158Z,17.05
2022-10-06T23:39:31.658Z,18.23
2022-10-06T23:41:59.293Z,17.17
2022-10-06T23:44:27.363Z,17.27
2022-10-06T23:46:58.625Z,17.63
2022-10-06T23:49:30.673Z,15.73
2022-10-06T23:51:58.387Z,17.45
2022-10-06T23:54:26.326Z,17.40
2022-10-06T23:56:53.726Z,18.40
2022-10-06T23:59:22.999Z,17.20
